Time;durP1;ratioP1;P1;durP2;ratioP2;P2;SDS_P1;SDS_P2;PMS_P1;PMS_P2;Temp;Humidity;BMP_temperature;BMP_pressure;BME280_temperature;BME280_humidity;BME280_pressure;Samples;Min_cycle;Max_cycle;Signal;HPM_P1;HPM_P2
2022/08/28 03:02:27;;;;;;;5.57;3.90;;;25.30;55.60;;;;;;4938768;23;45563;-61
2022/08/28 03:04:53;;;;;;;8.20;3.80;;;25.30;55.60;;;;;;4868786;29;46282;-63
2022/08/28 03:07:21;;;;;;;7.18;3.72;;;25.40;55.60;;;;;;4859039;29;45595;-63
2022/08/28 03:09:47;;;;;;;8.65;4.20;;;25.30;55.50;;;;;;4873553;29;45426;-62
2022/08/28 03:12:14;;;;;;;7.00;4.07;;;25.30;55.50;;;;;;4877203;29;45411;-62
2022/08/28 03:14:41;;;;;;;6.82;4.57;;;25.30;55.50;;;;;;4852684;29;46203;-63
2022/08/28 03:17:07;;;;;;;7.03;4.72;;;25.30;55.40;;;;;;4858519;29;45013;-62
2022/08/28 03:19:33;;;;;;;7.32;4.82;;;25.40;55.40;;;;;;4858105;29;44943;-62
2022/08/28 03:21:58;;;;;;;5.53;4.10;;;25.40;55.50;;;;;;4846964;29;44967;-62
2022/08/28 03:24:24;;;;;;;9.27;5.43;;;25.30;55.40;;;;;;4875786;29;45740;-62
2022/08/28 03:26:49;;;;;;;7.10;5.05;;;25.30;55.40;;;;;;4875544;29;45142;-63
2022/08/28 03:29:15;;;;;;;7.07;4.55;;;25.30;55.30;;;;;;4843073;29;44891;-63
2022/08/28 03:31:41;;;;;;;9.82;4.63;;;25.30;55.40;;;;;;4875511;29;45291;-62
2022/08/28 03:34:06;;;;;;;9.10;4.90;;;25.30;55.40;;;;;;4842530;29;46832;-63
2022/08/28 03:36:32;;;;;;;10.80;5.50;;;25.30;55.40;;;;;;4857496;29;45174;-60
2022/08/28 03:38:58;;;;;;;8.38;5.18;;;25.30;55.40;;;;;;4874598;29;44760;-62
2022/08/28 03:41:27;;;;;;;11.00;5.32;;;25.30;55.40;;;;;;4862021;29;45211;-63
2022/08/28 03:43:56;;;;;;;10.55;5.30;;;25.30;55.40;;;;;;4860647;29;46616;-62
2022/08/28 03:46:22;;;;;;;8.93;5.35;;;25.30;55.30;;;;;;4858382;29;45448;-63
2022/08/28 03:48:49;;;;;;;9.38;5.43;;;25.30;55.30;;;;;;4871566;29;45391;-63
2022/08/28 03:51:19;;;;;;;9.82;4.90;;;25.30;55.30;;;;;;4850896;29;46049;-63
2022/08/28 03:53:46;;;;;;;8.88;5.35;;;25.30;55.40;;;;;;4843349;29;45348;-63
2022/08/28 03:56:14;;;;;;;7.70;5.68;;;25.30;55.40;;;;;;4879721;29;45203;-64
2022/08/28 03:58:39;;;;;;;6.22;4.65;;;25.20;55.40;;;;;;4862194;29;45436;-64
2022/08/28 04:01:05;;;;;;;8.00;6.03;;;25.30;55.50;;;;;;4861042;29;44985;-63
2022/08/28 04:03:31;;;;;;;8.52;4.95;;;25.20;55.50;;;;;;4850033;29;46271;-63
2022/08/28 04:05:56;;;;;;;6.95;4.72;;;25.20;55.50;;;;;;4873989;29;45151;-63
2022/08/28 04:08:22;;;;;;;5.00;4.20;;;25.20;55.50;;;;;;4860394;29;45436;-63
2022/08/28 04:10:48;;;;;;;6.18;4.40;;;25.20;55.40;;;;;;4879605;29;45215;-63
2022/08/28 04:13:14;;;;;;;8.10;4.57;;;25.20;55.50;;;;;;4854087;29;45876;-63
2022/08/28 04:15:40;;;;;;;6.22;4.40;;;25.20;55.50;;;;;;4875083;29;45168;-63
2022/08/28 04:18:06;;;;;;;5.07;4.07;;;25.20;55.50;;;;;;4874363;29;45138;-63
2022/08/28 04:20:32;;;;;;;5.78;4.28;;;25.20;55.50;;;;;;4869559;29;45468;-63
2022/08/28 04:22:57;;;;;;;6.60;4.13;;;25.20;55.60;;;;;;4862976;29;45163;-63
2022/08/28 04:25:23;;;;;;;7.10;4.03;;;25.20;55.60;;;;;;4847027;29;44790;-62
2022/08/28 04:27:49;;;;;;;7.18;4.45;;;25.20;55.50;;;;;;4877337;29;45593;-63
2022/08/28 04:30:15;;;;;;;6.75;4.35;;;25.20;55.50;;;;;;4859344;29;45206;-62
2022/08/28 04:32:40;;;;;;;6.35;4.53;;;25.20;55.50;;;;;;4860825;29;45415;-62
2022/08/28 04:35:08;;;;;;;7.25;4.05;;;25.20;55.50;;;;;;4860561;29;45214;-62
2022/08/28 04:37:34;;;;;;;6.38;4.47;;;25.20;55.50;;;;;;4859525;29;45175;-62
2022/08/28 04:39:59;;;;;;;7.60;4.32;;;25.20;55.50;;;;;;4861484;29;45434;-63
2022/08/28 04:42:25;;;;;;;6.10;4.10;;;25.20;55.50;;;;;;4877329;29;46438;-64
2022/08/28 04:44:55;;;;;;;6.55;4.43;;;25.20;55.40;;;;;;4876231;29;45295;-64
2022/08/28 04:47:22;;;;;;;6.75;4.03;;;25.20;55.50;;;;;;4845457;29;45229;-64
2022/08/28 04:49:48;;;;;;;5.50;3.95;;;25.10;55.40;;;;;;4879615;29;45418;-64
2022/08/28 04:52:14;;;;;;;7.15;4.07;;;25.10;55.50;;;;;;4858610;29;45134;-64
2022/08/28 04:54:40;;;;;;;4.75;3.80;;;25.10;55.50;;;;;;4856696;29;45261;-64
2022/08/28 04:57:05;;;;;;;6.70;4.43;;;25.10;55.50;;;;;;4857415;29;45183;-64
2022/08/28 04:59:31;;;;;;;6.05;4.80;;;25.10;55.50;;;;;;4856822;29;45188;-62
2022/08/28 05:01:56;;;;;;;6.30;4.30;;;25.10;55.50;;;;;;4876589;29;45372;-64
2022/08/28 05:04:22;;;;;;;6.18;4.25;;;25.10;55.50;;;;;;4851358;29;45364;-64
2022/08/28 05:06:47;;;;;;;6.95;4.25;;;25.10;55.50;;;;;;4854191;29;45236;-64
2022/08/28 05:09:14;;;;;;;6.18;4.22;;;25.10;55.60;;;;;;4873826;29;45683;-63
2022/08/28 05:11:40;;;;;;;8.35;4.38;;;25.10;55.60;;;;;;4854973;29;45091;-63
2022/08/28 05:14:08;;;;;;;4.45;4.05;;;25.00;55.70;;;;;;4855445;29;45205;-64
2022/08/28 05:16:41;;;;;;;6.00;4.22;;;25.00;55.70;;;;;;4840578;29;44784;-63
2022/08/28 05:19:07;;;;;;;5.03;4.20;;;25.10;55.70;;;;;;4855677;29;44812;-64
2022/08/28 05:21:32;;;;;;;5.47;4.70;;;25.00;55.60;;;;;;4856872;29;45563;-63
2022/08/28 05:23:58;;;;;;;6.22;4.70;;;25.00;55.70;;;;;;4873667;29;45539;-63
2022/08/28 05:26:24;;;;;;;8.32;5.05;;;25.00;55.60;;;;;;4873086;29;45313;-64
2022/08/28 05:28:49;;;;;;;6.78;4.80;;;25.00;55.60;;;;;;4874867;29;45161;-64
2022/08/28 05:31:17;;;;;;;10.10;5.00;;;25.00;55.80;;;;;;4854929;29;45290;-64
2022/08/28 05:33:43;;;;;;;5.95;4.28;;;25.00;56.40;;;;;;4856707;29;45294;-64
2022/08/28 05:36:09;;;;;;;7.47;4.55;;;25.00;55.80;;;;;;4871865;29;45314;-64
2022/08/28 05:38:34;;;;;;;9.43;4.32;;;25.00;55.80;;;;;;4872825;29;44749;-64
2022/08/28 05:41:01;;;;;;;7.35;4.72;;;25.00;55.90;;;;;;4856082;29;45064;-63
2022/08/28 05:43:26;;;;;;;4.65;4.13;;;24.90;55.90;;;;;;4851301;29;44812;-63
2022/08/28 05:45:59;;;;;;;7.85;4.13;;;24.90;55.90;;;;;;4853935;29;45225;-64
2022/08/28 05:48:26;;;;;;;;;;;24.90;55.80;;;;;;4872817;29;46387;-64
2022/08/28 05:50:52;;;;;;;6.13;3.97;;;24.90;56.00;;;;;;4856064;29;46337;-64
2022/08/28 05:53:18;;;;;;;6.40;3.97;;;24.90;55.80;;;;;;4870554;29;45531;-63
2022/08/28 05:55:43;;;;;;;7.38;3.97;;;24.90;55.80;;;;;;4854676;29;45552;-64
2022/08/28 06:01:14;;;;;;;6.63;3.80;;;25.00;55.70;;;;;;4874646;29;46490;-64
2022/08/28 06:03:43;;;;;;;5.93;4.35;;;25.00;55.70;;;;;;4862803;29;45254;-61
2022/08/28 06:06:09;;;;;;;8.73;3.65;;;24.90;55.70;;;;;;4842199;29;45620;-63
2022/08/28 06:08:35;;;;;;;6.05;4.28;;;25.00;55.70;;;;;;4859781;29;45274;-64
2022/08/28 06:11:01;;;;;;;5.53;4.00;;;25.00;55.70;;;;;;4875963;29;45957;-64
2022/08/28 06:13:27;;;;;;;5.78;3.70;;;25.00;55.70;;;;;;4842467;29;45480;-63
2022/08/28 06:15:53;;;;;;;8.65;3.88;;;25.00;55.70;;;;;;4842754;29;44620;-63
2022/08/28 06:18:18;;;;;;;8.70;4.25;;;25.00;55.70;;;;;;4858520;29;44946;-64
2022/08/28 06:20:45;;;;;;;6.32;4.13;;;25.00;55.60;;;;;;4858361;29;46464;-63
2022/08/28 06:23:14;;;;;;;6.70;3.80;;;25.00;55.60;;;;;;4842438;29;45127;-63
2022/08/28 06:25:47;;;;;;;5.18;3.90;;;25.00;55.60;;;;;;4858384;29;45280;-63
2022/08/28 06:28:14;;;;;;;4.63;3.22;;;25.00;55.70;;;;;;4842684;29;45821;-64
2022/08/28 06:30:40;;;;;;;5.72;3.20;;;25.00;55.70;;;;;;4857081;29;45556;-64
2022/08/28 06:33:06;;;;;;;6.10;4.10;;;25.00;55.60;;;;;;4844326;29;45097;-63
2022/08/28 06:35:32;;;;;;;6.68;4.45;;;25.00;55.60;;;;;;4873084;29;45664;-63
2022/08/28 06:37:58;;;;;;;6.65;4.15;;;25.10;55.60;;;;;;4843248;29;45213;-63
2022/08/28 06:40:24;;;;;;;5.00;3.20;;;25.00;55.60;;;;;;4857486;29;45321;-63
2022/08/28 06:42:50;;;;;;;5.40;3.72;;;25.00;55.70;;;;;;4857892;29;44652;-64
2022/08/28 06:45:16;;;;;;;11.32;4.10;;;25.00;55.70;;;;;;4874860;29;45389;-64
2022/08/28 06:47:41;;;;;;;6.95;3.97;;;25.00;55.70;;;;;;4858442;29;48323;-63
2022/08/28 06:50:07;;;;;;;6.93;4.25;;;24.90;55.70;;;;;;4856490;29;45694;-64
2022/08/28 06:52:33;;;;;;;5.60;3.60;;;25.00;55.70;;;;;;4826115;29;45663;-63
2022/08/28 06:54:58;;;;;;;5.50;3.80;;;25.00;55.60;;;;;;4874651;29;45542;-63
2022/08/28 06:57:25;;;;;;;7.38;3.90;;;25.00;55.70;;;;;;4875686;29;45074;-63
2022/08/28 06:59:54;;;;;;;5.93;3.85;;;25.00;55.70;;;;;;4857377;29;45491;-64
2022/08/28 07:02:20;;;;;;;5.18;3.97;;;25.00;55.70;;;;;;4874728;29;45802;-64
2022/08/28 07:04:50;;;;;;;8.50;4.15;;;25.00;55.60;;;;;;4843112;29;45240;-63
2022/08/28 07:07:16;;;;;;;6.95;3.90;;;25.00;55.70;;;;;;4872189;29;45105;-63
2022/08/28 07:09:41;;;;;;;6.25;3.72;;;25.00;55.60;;;;;;4874301;29;45790;-64
2022/08/28 07:12:07;;;;;;;7.60;3.70;;;25.00;55.60;;;;;;4874001;29;46735;-64
2022/08/28 07:14:33;;;;;;;5.60;3.85;;;25.00;55.60;;;;;;4856102;29;45514;-64
2022/08/28 07:16:59;;;;;;;4.40;3.40;;;25.00;55.60;;;;;;4857950;29;45682;-64
2022/08/28 07:19:24;;;;;;;8.25;3.72;;;25.00;55.60;;;;;;4856984;29;46390;-64
2022/08/28 07:21:50;;;;;;;4.95;3.47;;;25.00;55.60;;;;;;4875781;29;45456;-63
2022/08/28 07:24:15;;;;;;;7.18;3.42;;;25.00;55.50;;;;;;4874911;29;45130;-64
2022/08/28 07:26:42;;;;;;;5.13;3.50;;;25.00;55.50;;;;;;4858049;29;44716;-64
2022/08/28 07:29:08;;;;;;;6.47;3.47;;;25.00;55.50;;;;;;4874763;29;46677;-63
2022/08/28 07:31:33;;;;;;;6.18;3.60;;;25.00;55.40;;;;;;4873964;29;45064;-64
2022/08/28 07:33:59;;;;;;;4.68;3.55;;;25.00;55.50;;;;;;4873877;29;45040;-64
2022/08/28 07:36:26;;;;;;;8.00;3.88;;;25.00;55.40;;;;;;4848867;29;44873;-63
2022/08/28 07:38:52;;;;;;;4.05;3.42;;;25.00;55.40;;;;;;4841932;29;46133;-63
2022/08/28 07:41:26;;;;;;;4.97;3.53;;;25.00;55.50;;;;;;4875459;29;45446;-64
2022/08/28 07:46:36;;;;;;;4.97;3.20;;;25.00;55.50;;;;;;4859778;29;45315;-63
2022/08/28 07:49:03;;;;;;;4.68;2.50;;;25.00;55.40;;;;;;4854410;29;45437;-64
2022/08/28 07:51:28;;;;;;;3.67;2.80;;;25.00;55.40;;;;;;4872361;29;45818;-63
2022/08/28 07:53:56;;;;;;;5.38;3.15;;;25.00;55.40;;;;;;4854605;29;45590;-63
2022/08/28 07:56:22;;;;;;;6.07;2.92;;;25.00;55.40;;;;;;4875019;29;44860;-63
2022/08/28 07:58:48;;;;;;;4.90;3.03;;;25.00;55.40;;;;;;4858097;29;46514;-63
2022/08/28 08:01:16;;;;;;;10.27;3.25;;;25.10;55.40;;;;;;4855547;29;44961;-63
2022/08/28 08:03:42;;;;;;;5.20;2.85;;;25.10;55.30;;;;;;4856080;29;45460;-63
2022/08/28 08:06:07;;;;;;;5.70;2.58;;;25.10;55.30;;;;;;4857325;29;45287;-63
2022/08/28 08:08:33;;;;;;;6.43;2.92;;;25.10;55.30;;;;;;4856348;29;45438;-64
2022/08/28 08:11:03;;;;;;;5.13;2.75;;;25.10;55.30;;;;;;4856741;29;45447;-64
2022/08/28 08:13:29;;;;;;;6.65;3.22;;;25.10;55.30;;;;;;4858257;29;45334;-64
2022/08/28 08:16:01;;;;;;;4.18;2.60;;;25.20;55.20;;;;;;4840179;29;45295;-64
2022/08/28 08:18:27;;;;;;;4.20;2.88;;;25.20;55.10;;;;;;4871685;29;46749;-64
2022/08/28 08:20:52;;;;;;;5.97;3.00;;;25.20;55.10;;;;;;4856603;29;45211;-63
2022/08/28 08:23:18;;;;;;;5.57;3.00;;;25.20;55.60;;;;;;4873179;29;45334;-63
2022/08/28 08:25:54;;;;;;;5.70;2.97;;;25.20;54.90;;;;;;4875801;29;45122;-63
2022/08/28 08:28:20;;;;;;;7.72;3.13;;;25.20;54.70;;;;;;4852410;29;46609;-63
2022/08/28 08:30:46;;;;;;;5.68;3.10;;;25.20;54.70;;;;;;4846032;29;45365;-63
2022/08/28 08:33:12;;;;;;;8.60;3.13;;;25.20;54.60;;;;;;4874769;29;45397;-63
2022/08/28 08:35:38;;;;;;;7.63;3.22;;;25.20;54.60;;;;;;4878491;29;45275;-63
2022/08/28 08:38:05;;;;;;;4.10;2.88;;;25.20;54.60;;;;;;4860688;29;46034;-63
2022/08/28 08:40:32;;;;;;;5.18;2.50;;;25.30;55.20;;;;;;4875794;29;45349;-63
2022/08/28 08:42:57;;;;;;;5.85;3.05;;;25.30;54.60;;;;;;4875751;29;45738;-63
2022/08/28 08:45:25;;;;;;;9.43;3.38;;;25.30;54.50;;;;;;4871583;29;45382;-63
2022/08/28 08:47:52;;;;;;;7.30;3.63;;;25.30;54.50;;;;;;4848541;29;45679;-63
2022/08/28 08:50:23;;;;;;;6.45;3.47;;;25.30;54.40;;;;;;4840839;29;45181;-63
2022/08/28 08:53:01;;;;;;;5.75;3.40;;;25.30;54.30;;;;;;4842172;29;45183;-63
2022/08/28 08:55:54;;;;;;;12.63;3.72;;;25.30;54.30;;;;;;4881167;29;45538;-63
2022/08/28 08:58:36;;;;;;;5.88;3.22;;;25.40;54.40;;;;;;4860656;29;46959;-63
2022/08/28 09:01:27;;;;;;;6.47;3.30;;;25.40;54.10;;;;;;4840666;29;45177;-62
2022/08/28 09:04:21;;;;;;;5.75;3.47;;;25.40;54.10;;;;;;4843774;29;45417;-63
2022/08/28 09:06:47;;;;;;;;;;;25.50;54.00;;;;;;4863046;29;44826;-63
2022/08/28 09:09:34;;;;;;;3.53;2.90;;;25.50;54.00;;;;;;4879577;29;45358;-63
2022/08/28 09:12:02;;;;;;;6.32;3.53;;;25.50;53.90;;;;;;4832915;29;45378;-64
2022/08/28 09:15:04;;;;;;;4.85;3.38;;;25.50;54.00;;;;;;4877030;29;45107;-63
2022/08/28 09:17:41;;;;;;;4.60;3.30;;;25.60;53.90;;;;;;4859523;29;45560;-63
2022/08/28 09:20:09;;;;;;;4.60;2.97;;;25.60;53.90;;;;;;4879319;29;46753;-63
2022/08/28 09:22:36;;;;;;;3.97;2.55;;;25.60;54.00;;;;;;4857204;29;45341;-63
2022/08/28 09:25:02;;;;;;;7.57;3.08;;;25.60;53.90;;;;;;4866705;29;45638;-64
2022/08/28 09:27:30;;;;;;;5.18;3.00;;;25.60;53.90;;;;;;4873698;29;45266;-63
2022/08/28 09:30:04;;;;;;;8.65;3.63;;;25.60;53.80;;;;;;4855680;29;46455;-63
2022/08/28 09:32:44;;;;;;;8.32;3.08;;;25.60;53.70;;;;;;4872766;29;45224;-63
2022/08/28 09:35:27;;;;;;;4.30;3.22;;;25.70;53.60;;;;;;4842108;29;45241;-63
2022/08/28 09:37:53;;;;;;;5.85;3.25;;;25.70;53.70;;;;;;4846573;29;45294;-63
2022/08/28 09:40:26;;;;;;;5.82;3.05;;;25.70;53.80;;;;;;4858783;29;45598;-63
2022/08/28 09:43:25;;;;;;;4.57;2.90;;;25.70;53.70;;;;;;4858419;29;45217;-63
2022/08/28 09:46:19;;;;;;;7.13;3.28;;;25.70;53.60;;;;;;4870176;29;44749;-63
2022/08/28 09:48:46;;;;;;;4.88;2.67;;;25.80;53.50;;;;;;4856264;29;45696;-63
2022/08/28 09:51:13;;;;;;;6.40;3.30;;;25.80;53.60;;;;;;4861163;29;46211;-62
2022/08/28 09:53:53;;;;;;;6.38;2.80;;;25.80;53.50;;;;;;4853164;29;45519;-62
2022/08/28 09:56:35;;;;;;;4.88;3.10;;;25.80;53.30;;;;;;4864453;29;45610;-62
2022/08/28 09:59:12;;;;;;;5.00;3.05;;;25.80;53.30;;;;;;4856140;29;44774;-62
2022/08/28 10:01:40;;;;;;;4.32;2.40;;;25.90;53.10;;;;;;4875413;29;46060;-62
2022/08/28 10:04:06;;;;;;;3.63;2.65;;;25.90;53.30;;;;;;4873108;29;45351;-62
2022/08/28 10:06:33;;;;;;;4.45;2.80;;;25.90;53.20;;;;;;4871664;29;45268;-62
2022/08/28 10:09:28;;;;;;;4.78;3.05;;;26.00;53.30;;;;;;4843237;29;45468;-62
2022/08/28 10:12:35;;;;;;;5.38;2.92;;;25.90;52.90;;;;;;4858587;29;46650;-62
2022/08/28 10:15:29;;;;;;;4.38;2.67;;;26.00;52.90;;;;;;4834861;29;46168;-62
2022/08/28 10:18:05;;;;;;;5.57;3.17;;;26.00;52.70;;;;;;4858710;29;45681;-62
2022/08/28 10:20:51;;;;;;;5.75;3.05;;;26.00;52.90;;;;;;4859883;29;44801;-62
2022/08/28 10:23:39;;;;;;;5.68;3.63;;;26.00;52.50;;;;;;4840740;29;45410;-62
2022/08/28 10:26:13;;;;;;;8.07;4.30;;;26.00;52.30;;;;;;4859504;29;45184;-63
2022/08/28 10:29:12;;;;;;;7.13;4.10;;;26.00;52.40;;;;;;4849251;29;45108;-62
2022/08/28 10:31:41;;;;;;;9.98;3.90;;;26.00;52.30;;;;;;4870811;29;45338;-62
2022/08/28 10:34:27;;;;;;;5.63;3.35;;;26.10;52.60;;;;;;4857051;29;45409;-62
2022/08/28 10:37:12;;;;;;;7.47;4.32;;;26.10;52.40;;;;;;4862316;29;44872;-63
2022/08/28 10:39:47;;;;;;;8.55;3.80;;;26.10;52.40;;;;;;4864531;29;45521;-63
2022/08/28 10:42:13;;;;;;;4.70;3.40;;;26.10;52.10;;;;;;4851673;29;45205;-62
2022/08/28 10:45:14;;;;;;;7.40;3.30;;;26.10;52.30;;;;;;4853404;29;46198;-62
2022/08/28 10:47:43;;;;;;;5.55;3.25;;;26.20;51.90;;;;;;4825446;29;44997;-62
2022/08/28 10:50:16;;;;;;;5.32;3.42;;;26.20;52.10;;;;;;4827233;29;45042;-63
2022/08/28 10:52:54;;;;;;;4.43;3.22;;;26.20;52.10;;;;;;4856871;29;45681;-62
2022/08/28 10:55:33;;;;;;;8.02;3.60;;;26.20;52.10;;;;;;4857443;29;46693;-62
2022/08/28 10:58:17;;;;;;;4.60;3.50;;;26.20;52.00;;;;;;4833868;29;45130;-62
2022/08/28 11:00:42;;;;;;;7.10;3.70;;;26.30;52.00;;;;;;4856216;29;45578;-63
2022/08/28 11:03:16;;;;;;;6.10;3.78;;;26.30;52.20;;;;;;4843022;29;45518;-63
2022/08/28 11:05:53;;;;;;;6.00;3.90;;;26.30;52.10;;;;;;4836867;29;45663;-62
2022/08/28 11:08:27;;;;;;;6.90;3.83;;;26.30;52.10;;;;;;4845557;29;45680;-62
2022/08/28 11:10:55;;;;;;;8.45;3.67;;;26.30;52.10;;;;;;4857539;29;45152;-62
2022/08/28 11:13:38;;;;;;;6.30;4.05;;;26.30;52.10;;;;;;4857516;29;45508;-62
2022/08/28 11:16:23;;;;;;;7.07;3.88;;;26.30;52.00;;;;;;4875525;29;45448;-63
2022/08/28 11:18:55;;;;;;;7.40;4.30;;;26.30;52.10;;;;;;4855648;29;45085;-62
2022/08/28 11:21:34;;;;;;;6.30;4.33;;;26.30;52.10;;;;;;4859740;29;45576;-61
2022/08/28 11:24:07;;;;;;;10.10;4.72;;;26.30;52.00;;;;;;4849134;29;45222;-62
2022/08/28 11:27:00;;;;;;;8.82;4.18;;;26.30;51.90;;;;;;4855942;29;45442;-62
2022/08/28 11:29:58;;;;;;;8.27;4.00;;;26.40;51.80;;;;;;4855449;29;45403;-62
2022/08/28 11:32:33;;;;;;;7.00;3.47;;;26.40;51.00;;;;;;4844072;29;46065;-62
2022/08/28 11:35:26;;;;;;;6.22;3.70;;;26.40;52.10;;;;;;4873499;29;45415;-63
2022/08/28 11:37:53;;;;;;;7.15;4.32;;;26.40;51.30;;;;;;4870222;29;46757;-62
2022/08/28 11:40:31;;;;;;;6.03;3.72;;;26.40;51.40;;;;;;4852221;29;45183;-62
2022/08/28 11:43:15;;;;;;;6.30;3.78;;;26.40;50.90;;;;;;4876947;29;45523;-62
2022/08/28 11:45:46;;;;;;;6.70;3.38;;;26.40;50.70;;;;;;4869746;29;45621;-62
2022/08/28 11:48:27;;;;;;;6.63;3.35;;;26.40;51.00;;;;;;4869811;29;46187;-62
2022/08/28 11:51:14;;;;;;;5.03;3.75;;;26.50;50.70;;;;;;4876193;29;45230;-62
2022/08/28 11:54:11;;;;;;;4.53;3.13;;;26.50;50.60;;;;;;4874512;29;45263;-62
2022/08/28 11:57:01;;;;;;;7.47;3.42;;;26.50;50.70;;;;;;4851243;29;45619;-62
2022/08/28 11:59:46;;;;;;;6.28;3.90;;;26.50;50.70;;;;;;4868291;29;45698;-62
2022/08/28 12:02:34;;;;;;;5.90;3.30;;;26.50;50.40;;;;;;4869384;29;44795;-62
2022/08/28 12:05:00;;;;;;;;;;;26.50;50.30;;;;;;4854283;29;45344;-62
2022/08/28 12:07:31;;;;;;;;;;;26.50;50.50;;;;;;4851952;29;45827;-62
2022/08/28 12:09:57;;;;;;;;;;;26.50;50.40;;;;;;4857386;29;46413;-64
2022/08/28 12:12:23;;;;;;;;;;;26.50;50.30;;;;;;4875316;29;45359;-62
2022/08/28 12:14:54;;;;;;;;;;;26.50;50.10;;;;;;4875412;29;45698;-62
2022/08/28 12:17:21;;;;;;;;;;;26.50;50.20;;;;;;4872701;29;45473;-62
2022/08/28 12:20:10;;;;;;;;;;;26.50;50.10;;;;;;4870699;29;47363;-62
2022/08/28 12:22:54;;;;;;;;;;;26.50;50.00;;;;;;4860075;29;45679;-62
2022/08/28 12:25:26;;;;;;;;;;;26.50;50.00;;;;;;4855927;29;45561;-62
2022/08/28 12:27:52;;;;;;;;;;;26.50;50.00;;;;;;4869940;29;44794;-62
2022/08/28 12:30:27;;;;;;;;;;;26.50;49.80;;;;;;4856601;29;45420;-63
2022/08/28 12:33:06;;;;;;;;;;;26.50;49.70;;;;;;4853091;29;45327;-63
2022/08/28 12:35:31;;;;;;;;;;;26.50;49.60;;;;;;4857134;29;45017;-62
2022/08/28 12:38:01;;;;;;;;;;;26.50;49.70;;;;;;4873726;29;45573;-66
2022/08/28 12:40:27;;;;;;;;;;;26.50;49.70;;;;;;4851571;29;46298;-62
2022/08/28 12:42:54;;;;;;;;;;;26.60;49.70;;;;;;4872227;29;45538;-62
2022/08/28 12:45:21;;;;;;;;;;;26.60;49.60;;;;;;4875306;29;45249;-62
2022/08/28 12:47:47;;;;;;;;;;;26.60;49.60;;;;;;4853590;29;45320;-62
2022/08/28 12:50:20;;;;;;;;;;;26.60;49.50;;;;;;4855782;29;46945;-62
2022/08/28 12:52:47;;;;;;;;;;;26.60;49.50;;;;;;4841576;29;45634;-62
2022/08/28 12:55:12;;;;;;;;;;;26.60;49.10;;;;;;4873922;29;45701;-62
2022/08/28 12:57:38;;;;;;;;;;;26.60;49.10;;;;;;4871547;29;45053;-62
2022/08/28 13:00:07;;;;;;;;;;;26.60;49.00;;;;;;4850545;29;46470;-62
2022/08/28 13:02:33;;;;;;;;;;;26.60;48.90;;;;;;4868097;29;45150;-61
2022/08/28 13:04:59;;;;;;;;;;;26.60;48.70;;;;;;4873293;29;45738;-62
2022/08/28 13:07:27;;;;;;;;;;;26.60;48.50;;;;;;4856739;29;45622;-62
2022/08/28 13:09:53;;;;;;;;;;;26.60;48.50;;;;;;4853582;29;46452;-60
2022/08/28 13:12:21;;;;;;;;;;;26.60;48.50;;;;;;4856434;29;45201;-62
2022/08/28 13:14:49;;;;;;;;;;;26.60;48.60;;;;;;4873787;29;45433;-62
2022/08/28 13:17:21;;;;;;;;;;;26.60;48.50;;;;;;4840490;29;45258;-62
2022/08/28 13:19:55;;;;;;;;;;;26.70;48.70;;;;;;4858261;29;46691;-62
2022/08/28 13:22:31;;;;;;;;;;;26.70;48.60;;;;;;4853337;29;45661;-62
2022/08/28 13:25:00;;;;;;;;;;;26.70;48.60;;;;;;4866401;29;44899;-62
2022/08/28 13:27:25;;;;;;;;;;;26.70;48.20;;;;;;4839086;29;45651;-62
2022/08/28 13:29:55;;;;;;;;;;;26.80;48.40;;;;;;4853652;29;45968;-62
2022/08/28 13:32:21;;;;;;;;;;;26.70;48.30;;;;;;4851809;29;45482;-62
2022/08/28 13:35:05;;;;;;;;;;;26.80;48.30;;;;;;4864809;29;45195;-62
2022/08/28 13:37:42;;;;;;;;;;;26.80;48.30;;;;;;4864593;29;46733;-62
2022/08/28 13:40:07;;;;;;;;;;;26.80;48.00;;;;;;4871973;29;46328;-63
2022/08/28 13:42:33;;;;;;;;;;;26.80;48.10;;;;;;4850525;29;45579;-62
2022/08/28 13:44:59;;;;;;;;;;;26.80;48.40;;;;;;4838746;29;45351;-62
2022/08/28 13:47:24;;;;;;;;;;;26.80;47.70;;;;;;4847960;29;45390;-63
2022/08/28 13:49:50;;;;;;;;;;;26.90;47.80;;;;;;4875816;29;45641;-63
2022/08/28 13:52:15;;;;;;;;;;;26.90;47.80;;;;;;4869354;29;45257;-63
2022/08/28 13:54:41;;;;;;;;;;;26.90;47.70;;;;;;4854936;29;45312;-63
2022/08/28 13:57:06;;;;;;;;;;;26.90;47.60;;;;;;4871978;29;45454;-63
2022/08/28 13:59:32;;;;;;;;;;;26.90;47.70;;;;;;4868180;29;46796;-62
2022/08/28 14:04:43;;;;;;;;;;;26.90;47.80;;;;;;4851513;29;45786;-63
2022/08/28 14:07:09;;;;;;;;;;;26.80;47.70;;;;;;4870978;29;45539;-63
2022/08/28 14:09:35;;;;;;;;;;;26.80;47.80;;;;;;4850064;29;45758;-63
2022/08/28 14:12:04;;;;;;;;;;;26.80;47.90;;;;;;4835306;29;45190;-63
2022/08/28 14:14:30;;;;;;;;;;;26.80;48.00;;;;;;4831769;29;44984;-63
2022/08/28 14:16:56;;;;;;;;;;;26.80;48.00;;;;;;4868273;29;45453;-63
2022/08/28 14:19:22;;;;;;;;;;;26.80;48.10;;;;;;4867998;29;46028;-63
2022/08/28 14:21:48;;;;;;;;;;;26.80;48.20;;;;;;4878899;29;45498;-63
2022/08/28 14:24:13;;;;;;;;;;;26.80;48.20;;;;;;4854188;29;45160;-63
2022/08/28 14:26:39;;;;;;;;;;;26.80;48.40;;;;;;4856717;29;45480;-62
2022/08/28 14:29:05;;;;;;;;;;;26.80;48.40;;;;;;4858627;29;46670;-63
2022/08/28 14:31:30;;;;;;;;;;;26.80;48.40;;;;;;4851033;29;45480;-63
2022/08/28 14:33:56;;;;;;;;;;;26.80;48.40;;;;;;4875507;29;45656;-63
2022/08/28 14:36:22;;;;;;;;;;;26.80;48.40;;;;;;4874770;29;45522;-63
2022/08/28 14:38:48;;;;;;;;;;;26.80;48.30;;;;;;4858911;29;45440;-63
2022/08/28 14:41:13;;;;;;;;;;;26.70;48.30;;;;;;4849584;29;45626;-65
2022/08/28 14:43:39;;;;;;;;;;;26.70;48.20;;;;;;4868419;29;45563;-63
2022/08/28 14:46:05;;;;;;;;;;;26.80;48.40;;;;;;4853145;29;45555;-64
2022/08/28 14:48:31;;;;;;;;;;;26.80;48.30;;;;;;4837707;29;46423;-63
2022/08/28 14:50:56;;;;;;;;;;;26.70;48.20;;;;;;4870725;29;45597;-63
2022/08/28 14:53:22;;;;;;;;;;;26.80;48.20;;;;;;4854623;29;45331;-63
2022/08/28 14:55:48;;;;;;;;;;;26.70;48.20;;;;;;4874642;29;45712;-63
2022/08/28 14:58:14;;;;;;;;;;;26.80;48.20;;;;;;4872994;29;45397;-63
2022/08/28 15:00:40;;;;;;;;;;;26.80;48.20;;;;;;4874539;29;44913;-63
2022/08/28 15:03:05;;;;;;;;;;;26.80;48.20;;;;;;4873635;29;45535;-63
2022/08/28 15:05:32;;;;;;;;;;;26.80;48.10;;;;;;4869880;29;45459;-63
2022/08/28 15:07:57;;;;;;;;;;;26.70;48.10;;;;;;4871805;29;45444;-63
2022/08/28 15:10:23;;;;;;;;;;;26.70;48.10;;;;;;4872895;29;45395;-63
2022/08/28 15:12:49;;;;;;;;;;;26.80;48.20;;;;;;4874694;29;45298;-63
2022/08/28 15:15:15;;;;;;;;;;;26.80;48.20;;;;;;4873277;29;45462;-63
2022/08/28 15:17:41;;;;;;;;;;;26.80;48.20;;;;;;4852260;29;45286;-63
2022/08/28 15:20:06;;;;;;;;;;;26.80;48.20;;;;;;4871272;29;45564;-63
2022/08/28 15:22:32;;;;;;;;;;;26.80;48.20;;;;;;4873103;29;45527;-63
2022/08/28 15:24:57;;;;;;;;;;;26.80;48.10;;;;;;4872842;29;45317;-62
2022/08/28 15:27:23;;;;;;;;;;;26.80;48.10;;;;;;4872819;29;45421;-61
2022/08/28 15:29:49;;;;;;;;;;;26.80;48.20;;;;;;4870103;29;45563;-62
2022/08/28 15:32:15;;;;;;;;;;;26.80;48.30;;;;;;4838893;29;45039;-66
2022/08/28 15:34:42;;;;;;;;;;;26.80;48.30;;;;;;4872788;29;46057;-61
2022/08/28 15:37:07;;;;;;;;;;;26.80;48.40;;;;;;4853038;29;45912;-61
2022/08/28 15:42:17;;;;;;;;;;;26.80;48.40;;;;;;4869723;29;45400;-62
2022/08/28 15:44:43;;;;;;;;;;;26.80;48.40;;;;;;4873135;29;45765;-62
2022/08/28 15:47:08;;;;;;;;;;;26.80;48.50;;;;;;4872221;29;45724;-62
2022/08/28 15:49:34;;;;;;;;;;;26.80;48.50;;;;;;4855363;29;44750;-62
2022/08/28 15:52:00;;;;;;;;;;;26.80;48.50;;;;;;4870822;29;45353;-62
2022/08/28 15:54:26;;;;;;;;;;;26.80;48.50;;;;;;4852531;29;45308;-61
2022/08/28 15:56:52;;;;;;;;;;;26.80;48.60;;;;;;4871637;29;45752;-63
2022/08/28 15:59:17;;;;;;;;;;;26.80;48.60;;;;;;4874773;29;45012;-62
2022/08/28 16:01:43;;;;;;;;;;;26.80;48.60;;;;;;4838474;29;46380;-62
2022/08/28 16:04:08;;;;;;;;;;;26.80;48.60;;;;;;4840303;29;45196;-62
2022/08/28 16:06:34;;;;;;;;;;;26.80;48.60;;;;;;4851988;29;47002;-62
2022/08/28 16:08:59;;;;;;;;;;;26.80;48.60;;;;;;4871228;29;46575;-61
2022/08/28 16:11:25;;;;;;;;;;;26.80;48.60;;;;;;4852110;29;45778;-61
2022/08/28 16:13:51;;;;;;;;;;;26.80;48.70;;;;;;4855824;29;45932;-63
2022/08/28 16:16:16;;;;;;;;;;;26.80;48.70;;;;;;4869596;29;44981;-62
2022/08/28 16:18:42;;;;;;;;;;;26.80;48.70;;;;;;4871171;29;45324;-62
2022/08/28 16:21:07;;;;;;;;;;;26.80;48.80;;;;;;4854337;29;45266;-62
2022/08/28 16:23:33;;;;;;;;;;;26.70;48.70;;;;;;4853370;29;45669;-63
2022/08/28 16:25:59;;;;;;;;;;;26.70;48.70;;;;;;4854078;29;46085;-63
2022/08/28 16:28:24;;;;;;;;;;;26.80;48.70;;;;;;4856108;29;45019;-63
2022/08/28 16:30:50;;;;;;;;;;;26.80;48.70;;;;;;4872551;29;45617;-62
2022/08/28 16:33:18;;;;;;;;;;;26.80;48.70;;;;;;4871663;29;45438;-62
2022/08/28 16:35:44;;;;;;;;;;;26.80;48.60;;;;;;4870306;29;45119;-62
2022/08/28 16:38:10;;;;;;;;;;;26.70;48.50;;;;;;4871930;29;45583;-62
2022/08/28 16:40:36;;;;;;;;;;;26.80;48.50;;;;;;4870334;29;45514;-62